createdAt,value
2019-05-07T00:01:09.502Z,98846.23
2019-05-07T00:03:36.969Z,98844.13
2019-05-07T00:06:04.323Z,98844.13
2019-05-07T00:08:32.381Z,98838.00
2019-05-07T00:11:02.126Z,98836.93
2019-05-07T00:13:29.644Z,98838.27
2019-05-07T00:15:57.330Z,98835.56
2019-05-07T00:18:24.626Z,98836.67
2019-05-07T00:20:53.343Z,98834.78
2019-05-07T00:23:23.382Z,98838.00
2019-05-07T00:25:53.014Z,98828.11
2019-05-07T00:28:22.985Z,98828.11
2019-05-07T00:30:52.092Z,98823.59
2019-05-07T00:33:20.132Z,98821.45
2019-05-07T00:35:57.616Z,98825.70
2019-05-07T00:38:27.839Z,98827.30
2019-05-07T00:41:05.974Z,98823.30
2019-05-07T00:43:37.175Z,98825.16
2019-05-07T00:46:08.096Z,98818.75
2019-05-07T00:48:35.781Z,98818.75
2019-05-07T00:51:42.565Z,98811.78
2019-05-07T00:54:12.066Z,98809.38
2019-05-07T00:56:38.988Z,98812.34
2019-05-07T00:59:06.505Z,98809.12
2019-05-07T01:01:34.953Z,98813.64
2019-05-07T01:04:02.801Z,98809.67
2019-05-07T01:06:30.074Z,98808.86
2019-05-07T01:08:58.156Z,98791.75
2019-05-07T01:11:27.241Z,98791.75
2019-05-07T01:13:57.154Z,98804.86
2019-05-07T01:16:26.000Z,98803.23
2019-05-07T01:18:54.743Z,98806.71
2019-05-07T01:21:24.515Z,98803.23
2019-05-07T01:23:52.632Z,98804.83
2019-05-07T01:26:21.915Z,98802.16
2019-05-07T01:28:59.190Z,98796.23
2019-05-07T01:31:38.772Z,98800.53
2019-05-07T01:34:26.855Z,98793.08
2019-05-07T01:36:55.047Z,98795.49
2019-05-07T01:39:23.797Z,98792.30
2019-05-07T01:41:52.916Z,98790.97
2019-05-07T01:44:22.138Z,98786.41
2019-05-07T01:46:49.803Z,98787.48
2019-05-07T01:49:16.896Z,98786.67
2019-05-07T01:51:44.472Z,98793.86
2019-05-07T01:54:12.936Z,98786.61
2019-05-07T01:56:59.348Z,98783.69
2019-05-07T01:59:27.666Z,98785.31
2019-05-07T02:01:57.965Z,98781.80
2019-05-07T02:04:32.666Z,98782.91
2019-05-07T02:07:23.464Z,98795.13
2019-05-07T02:10:02.853Z,98794.09
2019-05-07T02:12:32.948Z,98787.42
2019-05-07T02:15:02.688Z,98790.09
2019-05-07T02:17:32.231Z,98784.72
2019-05-07T02:20:02.643Z,98786.05
2019-05-07T02:24:03.401Z,98783.69
2019-05-07T02:26:32.147Z,98786.05
2019-05-07T02:28:59.478Z,98781.23
2019-05-07T02:31:26.734Z,98781.23
2019-05-07T02:33:54.377Z,98782.05
2019-05-07T02:36:23.749Z,98778.05
2019-05-07T02:39:12.847Z,98776.17
2019-05-07T02:41:40.273Z,98777.50
2019-05-07T02:44:07.701Z,98769.24
2019-05-07T02:46:44.867Z,98772.72
2019-05-07T02:49:37.721Z,98772.17
2019-05-07T02:52:32.447Z,98772.69
2019-05-07T02:55:18.522Z,98776.69
2019-05-07T02:57:45.665Z,98775.35
2019-05-07T03:00:14.157Z,98773.23
2019-05-07T03:02:43.692Z,98773.50
2019-05-07T03:05:13.777Z,98774.83
2019-05-07T03:07:42.712Z,98781.49
2019-05-07T03:10:13.641Z,98781.49
2019-05-07T03:12:42.825Z,98786.01
2019-05-07T03:15:09.533Z,98784.67
2019-05-07T03:17:36.615Z,98783.61
2019-05-07T03:20:07.503Z,98789.20
2019-05-07T03:22:34.879Z,98788.67
2019-05-07T03:25:16.679Z,98781.72
2019-05-07T03:27:44.796Z,98789.45
2019-05-07T03:30:26.562Z,98789.45
2019-05-07T03:33:06.975Z,98788.12
2019-05-07T03:35:45.890Z,98782.53
2019-05-07T03:38:09.368Z,98791.05
2019-05-07T03:40:36.927Z,98787.34
2019-05-07T03:43:05.963Z,98788.41
2019-05-07T03:45:49.190Z,98788.38
2019-05-07T03:48:18.742Z,98789.19
2019-05-07T03:51:48.679Z,98783.09
2019-05-07T03:54:15.777Z,98790.30
2019-05-07T03:56:43.738Z,98790.30
2019-05-07T03:59:13.021Z,98789.19
2019-05-07T04:01:42.886Z,98788.94
2019-05-07T04:04:09.047Z,98791.86
2019-05-07T04:06:36.429Z,98785.75
2019-05-07T04:09:04.027Z,98788.41
2019-05-07T04:11:33.699Z,98794.82
2019-05-07T04:14:02.656Z,98795.60
2019-05-07T04:16:29.283Z,98790.27
2019-05-07T04:18:56.515Z,98789.19
2019-05-07T04:21:23.635Z,98789.23
2019-05-07T04:23:55.468Z,98784.16
2019-05-07T04:26:33.598Z,98794.02
2019-05-07T04:29:04.890Z,98792.16
2019-05-07T04:31:34.695Z,98789.75
2019-05-07T04:34:07.091Z,98803.34
2019-05-07T04:36:44.038Z,98796.42
2019-05-07T04:39:13.475Z,98798.83
2019-05-07T04:41:43.216Z,98796.42
2019-05-07T04:44:09.846Z,98794.05
2019-05-07T04:46:36.980Z,98799.64
2019-05-07T04:49:04.425Z,98802.56
2019-05-07T04:51:39.480Z,98793.50
2019-05-07T04:54:06.967Z,98796.69
2019-05-07T04:56:34.824Z,98789.53
2019-05-07T04:59:03.873Z,98797.27
2019-05-07T05:01:37.259Z,98791.94
2019-05-07T05:04:24.183Z,98794.35
2019-05-07T05:06:37.187Z,98790.35
2019-05-07T05:09:05.728Z,98786.41
2019-05-07T05:11:33.938Z,98791.75
2019-05-07T05:15:12.612Z,98785.11
2019-05-07T05:17:50.548Z,98784.30
2019-05-07T05:20:09.794Z,98788.04
2019-05-07T05:22:47.416Z,98789.89
2019-05-07T05:25:27.495Z,98792.86
2019-05-07T05:27:54.800Z,98792.59
2019-05-07T05:30:30.112Z,98796.33
2019-05-07T05:33:01.358Z,98799.52
2019-05-07T05:35:28.211Z,98798.48
2019-05-07T05:37:56.015Z,98798.50
2019-05-07T05:43:22.216Z,98796.37
2019-05-07T05:45:50.084Z,98797.97
2019-05-07T05:48:18.698Z,98804.64
2019-05-07T05:53:09.043Z,98799.89
2019-05-07T05:55:38.260Z,98803.94
2019-05-07T05:58:20.429Z,98802.88
2019-05-07T06:02:26.251Z,98804.45
2019-05-07T06:05:22.125Z,98801.80
2019-05-07T06:07:57.648Z,98798.06
2019-05-07T06:10:33.000Z,98798.86
2019-05-07T06:13:15.183Z,98783.88
2019-05-07T06:15:54.483Z,98799.34
2019-05-07T06:18:41.874Z,98799.34
2019-05-07T06:21:23.955Z,98802.01
2019-05-07T06:23:56.549Z,98803.62
2019-05-07T06:26:24.772Z,98800.41
2019-05-07T06:28:53.453Z,98795.06
2019-05-07T06:31:22.587Z,98789.45
2019-05-07T06:33:52.331Z,98789.72
2019-05-07T06:36:21.978Z,98793.46
2019-05-07T06:39:01.827Z,98792.38
2019-05-07T06:41:47.642Z,98792.09
2019-05-07T06:44:22.246Z,98792.62
2019-05-07T06:46:52.788Z,98792.62
2019-05-07T06:49:22.487Z,98794.75
2019-05-07T06:51:52.827Z,98794.75
2019-05-07T06:54:22.613Z,98798.22
2019-05-07T06:56:52.379Z,98800.37
2019-05-07T07:01:22.635Z,98792.83
2019-05-07T07:04:02.579Z,98789.91
2019-05-07T07:06:52.425Z,98796.88
2019-05-07T07:09:27.200Z,98796.88
2019-05-07T07:11:58.674Z,98795.52
2019-05-07T07:14:27.715Z,98779.44
2019-05-07T07:16:56.390Z,98779.44
2019-05-07T07:19:24.456Z,98795.73
2019-05-07T07:21:52.843Z,98795.73
2019-05-07T07:24:22.161Z,98794.36
2019-05-07T07:26:57.234Z,98796.47
2019-05-07T07:29:27.416Z,98796.47
2019-05-07T07:31:59.203Z,98787.89
2019-05-07T07:34:30.261Z,98787.89
2019-05-07T07:37:18.606Z,98787.88
2019-05-07T07:39:46.529Z,98778.49
2019-05-07T07:42:15.572Z,98778.49
2019-05-07T07:44:44.368Z,98775.80
2019-05-07T07:47:12.923Z,98752.53
2019-05-07T07:49:42.113Z,98752.53
2019-05-07T07:52:12.241Z,98777.87
2019-05-07T07:54:42.655Z,98774.91
2019-05-07T07:57:39.837Z,98774.91
2019-05-07T08:00:29.947Z,98778.11
2019-05-07T08:03:02.305Z,98773.59
2019-05-07T08:05:32.610Z,98764.77
2019-05-07T08:08:03.359Z,98769.84
2019-05-07T08:10:33.369Z,98768.52
2019-05-07T08:13:03.587Z,98768.52
2019-05-07T08:15:33.197Z,98767.16
2019-05-07T08:18:02.991Z,98765.84
2019-05-07T08:20:32.861Z,98762.64
2019-05-07T08:23:03.060Z,98758.93
2019-05-07T08:25:48.779Z,98756.20
2019-05-07T08:28:17.736Z,98756.20
2019-05-07T08:30:53.787Z,98752.72
2019-05-07T08:33:27.804Z,98756.44
2019-05-07T08:36:17.285Z,98756.44
2019-05-07T08:38:52.878Z,98743.58
2019-05-07T08:41:23.300Z,98722.72
2019-05-07T08:44:10.633Z,98734.70
2019-05-07T08:46:51.970Z,98734.70
2019-05-07T08:49:33.459Z,98735.48
2019-05-07T08:52:03.075Z,98722.89
2019-05-07T08:54:34.360Z,98725.99
2019-05-07T08:57:04.754Z,98725.99
2019-05-07T08:59:34.929Z,98719.52
2019-05-07T09:02:05.362Z,98723.45
2019-05-07T09:04:36.589Z,98723.45
2019-05-07T09:07:06.690Z,98713.83
2019-05-07T09:09:36.608Z,98716.19
2019-05-07T09:12:05.851Z,98712.64
2019-05-07T09:14:34.348Z,98702.48
2019-05-07T09:17:04.724Z,98702.48
2019-05-07T09:19:47.270Z,98713.63
2019-05-07T09:22:05.744Z,98706.61
2019-05-07T09:24:35.577Z,98706.61
2019-05-07T09:27:12.023Z,98696.03
2019-05-07T09:30:09.344Z,98696.03
2019-05-07T09:32:52.722Z,98694.52
2019-05-07T09:35:24.750Z,98694.52
2019-05-07T09:37:53.757Z,98695.32
2019-05-07T09:40:22.768Z,98691.37
2019-05-07T09:42:52.619Z,98691.37
2019-05-07T09:45:22.462Z,98689.25
2019-05-07T09:47:52.675Z,98688.47
2019-05-07T09:50:22.393Z,98666.80
2019-05-07T09:52:52.682Z,98666.80
2019-05-07T09:55:23.411Z,98673.64
2019-05-07T09:57:53.061Z,98680.55
2019-05-07T10:00:22.602Z,98674.87
2019-05-07T10:02:52.856Z,98678.23
2019-05-07T10:05:22.352Z,98671.09
2019-05-07T10:07:52.629Z,98676.14
2019-05-07T10:10:22.277Z,98676.14
2019-05-07T10:13:12.672Z,98674.72
2019-05-07T10:15:43.037Z,98671.02
2019-05-07T10:18:18.141Z,98662.20
2019-05-07T10:20:48.595Z,98662.20
2019-05-07T10:23:22.950Z,98657.33
2019-05-07T10:25:52.818Z,98637.47
2019-05-07T10:28:22.858Z,98637.47
2019-05-07T10:30:53.830Z,98654.97
2019-05-07T10:33:22.974Z,98650.32
2019-05-07T10:35:53.741Z,98648.95
2019-05-07T10:38:23.857Z,98641.27
2019-05-07T10:40:52.752Z,98640.70
2019-05-07T10:43:22.461Z,98643.15
2019-05-07T10:46:12.791Z,98643.77
2019-05-07T10:49:01.973Z,98621.44
2019-05-07T10:51:32.221Z,98621.44
2019-05-07T10:54:02.256Z,98632.80
2019-05-07T10:56:32.651Z,98633.13
2019-05-07T10:59:02.903Z,98611.05
2019-05-07T11:01:38.325Z,98611.05
2019-05-07T11:04:08.809Z,98613.97
2019-05-07T11:06:36.681Z,98613.40
2019-05-07T11:09:06.810Z,98610.14
2019-05-07T11:11:36.768Z,98605.03
2019-05-07T11:14:05.825Z,98603.44
2019-05-07T11:16:43.057Z,98594.80
2019-05-07T11:19:12.821Z,98578.09
2019-05-07T11:21:41.879Z,98572.34
2019-05-07T11:24:12.086Z,98585.69
2019-05-07T11:26:42.807Z,98585.69
2019-05-07T11:29:12.964Z,98581.91
2019-05-07T11:31:42.451Z,98564.27
2019-05-07T11:34:13.807Z,98564.27
2019-05-07T11:36:43.348Z,98569.72
2019-05-07T11:39:12.303Z,98554.08
2019-05-07T11:41:58.811Z,98550.05
2019-05-07T11:44:29.034Z,98550.05
2019-05-07T11:47:18.461Z,98553.13
2019-05-07T11:50:05.957Z,98536.14
2019-05-07T11:52:38.042Z,98536.14
2019-05-07T11:55:07.567Z,98551.05
2019-05-07T11:57:37.645Z,98554.06
2019-05-07T12:00:09.998Z,98544.37
2019-05-07T12:02:39.045Z,98546.38
2019-05-07T12:05:08.360Z,98522.69
2019-05-07T12:07:38.338Z,98517.50
2019-05-07T12:10:07.809Z,98517.50
2019-05-07T12:12:40.103Z,98522.95
2019-05-07T12:15:09.438Z,98522.79
2019-05-07T12:17:38.673Z,98517.42
2019-05-07T12:20:07.678Z,98514.98
2019-05-07T12:22:47.792Z,98512.23
2019-05-07T12:25:16.852Z,98481.32
2019-05-07T12:27:45.766Z,98507.63
2019-05-07T12:30:18.399Z,98505.11
2019-05-07T12:33:15.700Z,98505.11
2019-05-07T12:35:45.781Z,98503.25
2019-05-07T12:38:14.483Z,98502.42
2019-05-07T12:40:43.327Z,98502.42
2019-05-07T12:43:11.593Z,98500.69
2019-05-07T12:45:42.109Z,98500.69
2019-05-07T12:48:12.141Z,98495.61
2019-05-07T12:50:43.260Z,98493.11
2019-05-07T12:53:23.607Z,98472.80
2019-05-07T12:55:55.778Z,98485.70
2019-05-07T12:58:23.616Z,98485.70
2019-05-07T13:01:13.915Z,98491.08
2019-05-07T13:04:02.651Z,98484.07
2019-05-07T13:06:32.590Z,98484.07
2019-05-07T13:09:01.756Z,98480.16
2019-05-07T13:11:32.469Z,98477.66
2019-05-07T13:14:02.117Z,98476.00
2019-05-07T13:16:32.401Z,98472.16
2019-05-07T13:19:01.966Z,98470.63
2019-05-07T13:21:31.970Z,98467.38
2019-05-07T13:24:02.883Z,98454.83
2019-05-07T13:26:32.406Z,98445.91
2019-05-07T13:29:02.509Z,98445.91
2019-05-07T13:31:32.691Z,98402.43
2019-05-07T13:34:02.891Z,98440.19
2019-05-07T13:36:32.412Z,98440.19
2019-05-07T13:39:32.794Z,98461.84
2019-05-07T13:42:26.865Z,98452.27
2019-05-07T13:45:13.813Z,98449.11
2019-05-07T13:47:43.076Z,98446.62
2019-05-07T13:50:12.049Z,98439.28
2019-05-07T13:52:43.356Z,98435.36
2019-05-07T13:55:12.836Z,98431.69
2019-05-07T13:57:41.759Z,98426.80
2019-05-07T14:00:14.576Z,98422.72
2019-05-07T14:02:43.039Z,98422.72
2019-05-07T14:05:13.963Z,98417.55
2019-05-07T14:07:42.980Z,98417.55
2019-05-07T14:10:12.650Z,98406.92
2019-05-07T14:12:43.604Z,98407.41
2019-05-07T14:15:13.821Z,98412.90
2019-05-07T14:17:41.762Z,98398.52
2019-05-07T14:20:12.986Z,98398.52
2019-05-07T14:22:42.842Z,98406.50
2019-05-07T14:25:13.319Z,98406.50
2019-05-07T14:27:42.814Z,98402.48
2019-05-07T14:30:13.161Z,98392.33
2019-05-07T14:32:52.574Z,98396.16
2019-05-07T14:35:28.914Z,98383.69
2019-05-07T14:38:02.740Z,98388.78
2019-05-07T14:40:33.333Z,98388.78
2019-05-07T14:43:08.992Z,98384.45
2019-05-07T14:45:39.049Z,98384.23
2019-05-07T14:49:34.804Z,98378.78
2019-05-07T14:52:03.785Z,98379.03
2019-05-07T14:54:33.675Z,98376.17
2019-05-07T14:57:03.739Z,98368.73
2019-05-07T14:59:33.564Z,98349.58
2019-05-07T15:02:02.923Z,98349.58
2019-05-07T15:04:31.703Z,98355.23
2019-05-07T15:07:02.515Z,98334.77
2019-05-07T15:09:31.811Z,98354.46
2019-05-07T15:12:02.239Z,98354.46
2019-05-07T15:14:31.945Z,98350.52
2019-05-07T15:17:09.017Z,98348.08
2019-05-07T15:19:38.419Z,98327.66
2019-05-07T15:22:26.749Z,98327.66
2019-05-07T15:24:56.344Z,98342.17
2019-05-07T15:27:26.572Z,98342.52
2019-05-07T15:29:57.495Z,98334.84
2019-05-07T15:32:27.024Z,98334.84
2019-05-07T15:34:56.010Z,98333.80
2019-05-07T15:37:24.489Z,98338.87
2019-05-07T15:42:04.009Z,98325.14
2019-05-07T15:44:34.987Z,98320.36
2019-05-07T15:47:11.716Z,98320.36
2019-05-07T15:49:41.876Z,98321.17
2019-05-07T15:52:43.049Z,98328.00
2019-05-07T15:55:13.350Z,98325.91
2019-05-07T15:57:43.685Z,98325.91
2019-05-07T16:00:15.888Z,98318.27
2019-05-07T16:02:47.960Z,98318.88
2019-05-07T16:05:18.373Z,98298.91
2019-05-07T16:07:49.369Z,98298.91
2019-05-07T16:10:20.259Z,98306.56
2019-05-07T16:12:53.106Z,98306.56
2019-05-07T16:15:23.791Z,98302.53
2019-05-07T16:18:02.805Z,98302.53
2019-05-07T16:20:33.339Z,98293.44
2019-05-07T16:23:14.418Z,98293.44
2019-05-07T16:25:37.016Z,98288.09
2019-05-07T16:28:07.340Z,98292.92
2019-05-07T16:30:37.729Z,98292.92
2019-05-07T16:33:07.759Z,98284.83
2019-05-07T16:35:37.737Z,98287.78
2019-05-07T16:38:07.610Z,98284.59
2019-05-07T16:40:38.588Z,98285.63
2019-05-07T16:43:09.215Z,98285.63
2019-05-07T16:45:39.366Z,98273.52
2019-05-07T16:48:09.004Z,98274.56
2019-05-07T16:50:40.974Z,98269.02
2019-05-07T16:53:13.384Z,98255.58
2019-05-07T16:55:44.753Z,98255.58
2019-05-07T16:58:23.430Z,98267.75
2019-05-07T17:01:00.129Z,98264.59
2019-05-07T17:03:36.807Z,98257.13
2019-05-07T17:06:06.725Z,98252.36
2019-05-07T17:08:44.969Z,98252.78
2019-05-07T17:11:13.676Z,98252.78
2019-05-07T17:13:42.885Z,98249.59
2019-05-07T17:16:12.377Z,98246.09
2019-05-07T17:19:08.208Z,98249.52
2019-05-07T17:21:37.994Z,98230.11
2019-05-07T17:24:07.859Z,98244.67
2019-05-07T17:26:38.723Z,98249.39
2019-05-07T17:29:08.333Z,98249.39
2019-05-07T17:31:37.084Z,98245.77
2019-05-07T17:34:08.301Z,98240.25
2019-05-07T17:36:37.858Z,98240.25
2019-05-07T17:39:07.745Z,98235.29
2019-05-07T17:41:37.429Z,98235.29
2019-05-07T17:44:07.359Z,98230.54
2019-05-07T17:46:38.763Z,98230.11
2019-05-07T17:49:09.356Z,98218.31
2019-05-07T17:51:46.868Z,98218.31
2019-05-07T17:54:16.821Z,98227.17
2019-05-07T17:56:46.835Z,98227.17
2019-05-07T17:59:18.821Z,98215.95
2019-05-07T18:02:11.355Z,98226.66
2019-05-07T18:04:50.779Z,98226.66
2019-05-07T18:07:18.067Z,98231.44
2019-05-07T18:09:49.787Z,98227.83
2019-05-07T18:12:19.850Z,98227.83
2019-05-07T18:14:52.807Z,98230.50
2019-05-07T18:17:52.825Z,98208.24
2019-05-07T18:20:22.773Z,98218.86
2019-05-07T18:22:53.397Z,98218.86
2019-05-07T18:25:22.873Z,98213.84
2019-05-07T18:27:52.815Z,98220.53
2019-05-07T18:30:22.706Z,98194.03
2019-05-07T18:32:58.072Z,98207.39
2019-05-07T18:35:26.773Z,98207.39
2019-05-07T18:37:54.368Z,98207.25
2019-05-07T18:40:24.502Z,98207.25
2019-05-07T18:42:54.765Z,98188.41
2019-05-07T18:45:25.676Z,98204.06
2019-05-07T18:47:55.480Z,98204.06
2019-05-07T18:50:27.120Z,98208.48
2019-05-07T18:55:36.874Z,98195.68
2019-05-07T18:58:06.856Z,98195.68
2019-05-07T19:00:38.624Z,98219.26
2019-05-07T19:03:07.014Z,98223.76
2019-05-07T19:05:35.755Z,98219.16
2019-05-07T19:08:08.625Z,98222.64
2019-05-07T19:10:37.786Z,98225.39
2019-05-07T19:13:07.697Z,98225.39
2019-05-07T19:15:39.278Z,98208.61
2019-05-07T19:18:11.878Z,98226.08
2019-05-07T19:20:42.961Z,98233.30
2019-05-07T19:25:58.082Z,98225.95
2019-05-07T19:28:28.794Z,98225.70
2019-05-07T19:30:57.869Z,98225.70
2019-05-07T19:33:27.886Z,98208.42
2019-05-07T19:35:58.851Z,98224.64
2019-05-07T19:38:29.447Z,98224.64
2019-05-07T19:40:59.096Z,98219.28
2019-05-07T19:43:29.732Z,98213.78
2019-05-07T19:45:58.940Z,98220.56
2019-05-07T19:48:28.118Z,98204.41
2019-05-07T19:50:57.636Z,98203.28
2019-05-07T19:53:26.364Z,98203.28
2019-05-07T19:56:04.983Z,98223.14
2019-05-07T19:58:35.634Z,98203.23
2019-05-07T20:01:06.861Z,98203.23
2019-05-07T20:03:40.563Z,98209.74
2019-05-07T20:06:09.642Z,98211.35
2019-05-07T20:08:40.630Z,98207.63
2019-05-07T20:11:22.411Z,98205.24
2019-05-07T20:13:52.478Z,98205.24
2019-05-07T20:16:23.327Z,98198.55
2019-05-07T20:18:53.955Z,98193.94
2019-05-07T20:21:23.735Z,98178.17
2019-05-07T20:23:53.767Z,98178.17
2019-05-07T20:26:23.767Z,98199.94
2019-05-07T20:28:54.800Z,98177.53
2019-05-07T20:31:24.599Z,98177.53
2019-05-07T20:33:54.836Z,98198.38
2019-05-07T20:36:24.844Z,98196.11
2019-05-07T20:39:23.118Z,98181.36
2019-05-07T20:41:52.755Z,98181.36
2019-05-07T20:45:57.740Z,98176.70
2019-05-07T20:48:28.538Z,98180.27
2019-05-07T20:50:58.741Z,98179.44
2019-05-07T20:53:47.831Z,98175.42
2019-05-07T20:56:22.540Z,98172.89
2019-05-07T20:58:53.534Z,98168.23
2019-05-07T21:01:24.645Z,98167.41
2019-05-07T21:03:54.882Z,98167.41
2019-05-07T21:06:24.352Z,98173.72
2019-05-07T21:08:54.405Z,98152.51
2019-05-07T21:11:24.093Z,98152.51
2019-05-07T21:13:55.952Z,98154.36
2019-05-07T21:16:26.772Z,98144.33
2019-05-07T21:18:57.092Z,98153.37
2019-05-07T21:21:28.677Z,98135.25
2019-05-07T21:24:01.527Z,98156.53
2019-05-07T21:26:32.683Z,98156.53
2019-05-07T21:29:03.204Z,98158.73
2019-05-07T21:31:32.864Z,98159.50
2019-05-07T21:36:38.822Z,98137.48
2019-05-07T21:39:13.110Z,98119.58
2019-05-07T21:41:42.759Z,98119.58
2019-05-07T21:44:16.966Z,98108.92
2019-05-07T21:46:48.882Z,98107.53
2019-05-07T21:50:39.284Z,98115.46
2019-05-07T21:53:19.382Z,98114.77
2019-05-07T21:56:01.744Z,98110.51
2019-05-07T21:58:39.883Z,98112.14
2019-05-07T22:01:16.813Z,98113.13
2019-05-07T22:03:48.848Z,98110.29
2019-05-07T22:06:18.890Z,98115.19
2019-05-07T22:08:48.863Z,98115.53
2019-05-07T22:11:18.853Z,98111.62
2019-05-07T22:13:48.802Z,98108.94
2019-05-07T22:16:19.509Z,98103.91
2019-05-07T22:18:52.042Z,98098.89
2019-05-07T22:21:23.840Z,98089.63
2019-05-07T22:23:55.051Z,98089.04
2019-05-07T22:26:26.580Z,98068.80
2019-05-07T22:28:57.422Z,98068.80
2019-05-07T22:31:56.845Z,98086.32
2019-05-07T22:34:58.919Z,98071.66
2019-05-07T22:37:32.392Z,98055.33
2019-05-07T22:40:03.016Z,98055.33
2019-05-07T22:43:15.828Z,98067.47
2019-05-07T22:45:46.318Z,98056.56
2019-05-07T22:48:17.021Z,98056.56
2019-05-07T22:53:12.570Z,98052.55
2019-05-07T22:55:42.372Z,98047.01
2019-05-07T22:59:01.367Z,98033.31
2019-05-07T23:01:31.980Z,98041.20
2019-05-07T23:04:02.724Z,98047.13
2019-05-07T23:07:12.818Z,98033.46
2019-05-07T23:09:44.908Z,98033.46
2019-05-07T23:12:12.907Z,98028.13
2019-05-07T23:14:41.284Z,98036.20
2019-05-07T23:17:09.790Z,98021.78
2019-05-07T23:22:05.741Z,98019.21
2019-05-07T23:24:34.534Z,98019.21
2019-05-07T23:27:02.442Z,98023.70
2019-05-07T23:29:33.035Z,98017.36
2019-05-07T23:32:02.281Z,98017.36
2019-05-07T23:34:32.609Z,98011.50
2019-05-07T23:37:02.405Z,97991.66
2019-05-07T23:39:34.384Z,98006.48
2019-05-07T23:42:16.797Z,98006.48
2019-05-07T23:44:47.044Z,98007.30
2019-05-07T23:47:16.461Z,98008.92
2019-05-07T23:49:47.372Z,97997.88
2019-05-07T23:52:15.933Z,97997.88
2019-05-07T23:54:44.897Z,98011.94
2019-05-07T23:57:15.393Z,98007.17
2019-05-07T23:59:44.988Z,98007.17
